Time;durP1;ratioP1;P1;durP2;ratioP2;P2;SDS_P1;SDS_P2;PMS_P1;PMS_P2;Temp;Humidity;BMP_temperature;BMP_pressure;BME280_temperature;BME280_humidity;BME280_pressure;Samples;Min_cycle;Max_cycle;Signal;HPM_P1;HPM_P2
2022/05/24 00:01:13;;;;;;;3.15;1.80;;;;;;;18.93;69.96;98030.47;5163501;28;20097;-74
2022/05/24 00:04:03;;;;;;;2.17;1.70;;;;;;;18.85;69.64;98021.91;5164255;28;20062;-74
2022/05/24 00:06:54;;;;;;;2.88;1.60;;;;;;;18.87;69.65;98019.78;5179589;28;20061;-72
2022/05/24 00:09:44;;;;;;;2.35;1.45;;;;;;;19.05;68.45;98027.06;5175229;28;20050;-72
2022/05/24 00:12:34;;;;;;;4.32;1.45;;;;;;;18.75;68.57;98023.22;5169031;28;20636;-72
2022/05/24 00:15:29;;;;;;;3.53;1.60;;;;;;;18.99;68.41;98037.66;5162552;28;20782;-73
2022/05/24 00:18:24;;;;;;;1.42;1.33;;;;;;;18.80;68.68;98037.84;5172266;28;20050;-74
2022/05/24 00:21:15;;;;;;;3.42;1.65;;;;;;;18.84;69.08;98044.41;5172083;28;20046;-73
2022/05/24 00:24:05;;;;;;;3.65;1.45;;;;;;;19.16;67.58;98040.59;5182753;28;20065;-70
2022/05/24 00:26:56;;;;;;;2.30;1.67;;;;;;;18.93;68.47;98037.72;5175568;28;20097;-74
2022/05/24 00:29:46;;;;;;;4.35;1.90;;;;;;;18.52;69.54;98039.88;5158153;28;20134;-73
2022/05/24 00:32:36;;;;;;;4.90;1.67;;;;;;;18.26;69.88;98035.53;5168074;28;20058;-74
2022/05/24 00:35:26;;;;;;;4.32;1.77;;;;;;;18.50;69.57;98033.09;5172518;28;20500;-73
2022/05/24 00:38:30;;;;;;;4.32;1.98;;;;;;;18.53;69.63;98035.34;5164729;28;20430;-72
2022/05/24 00:41:41;;;;;;;4.50;2.03;;;;;;;18.13;70.29;98046.34;5164248;28;20053;-73
2022/05/24 00:44:40;;;;;;;3.47;2.10;;;;;;;18.43;69.62;98035.81;5177202;28;20053;-72
2022/05/24 00:47:38;;;;;;;5.85;2.22;;;;;;;18.18;71.09;98030.44;5164220;28;20517;-72
2022/05/24 00:50:34;;;;;;;2.45;2.17;;;;;;;18.33;70.33;98024.75;5171891;28;20512;-72
2022/05/24 00:53:38;;;;;;;3.72;2.90;;;;;;;18.31;69.76;98029.53;5170700;28;20108;-72
2022/05/24 00:56:38;;;;;;;;;;;;;;;18.34;70.08;98034.44;5164868;28;20136;-73
2022/05/24 00:59:40;;;;;;;3.55;3.20;;;;;;;18.29;70.52;98039.63;5164514;28;19932;-72
2022/05/24 01:02:30;;;;;;;2.85;2.58;;;;;;;18.31;69.72;98030.34;5164332;28;20718;-73
2022/05/24 01:05:24;;;;;;;4.18;2.78;;;;;;;18.46;69.08;98029.19;5166017;28;20056;-73
2022/05/24 01:08:14;;;;;;;3.17;2.60;;;;;;;18.42;69.04;98012.72;5165764;28;20072;-73
2022/05/24 01:11:06;;;;;;;5.90;3.17;;;;;;;18.46;69.33;98035.38;5164067;28;20148;-73
2022/05/24 01:13:58;;;;;;;3.78;3.40;;;;;;;18.43;69.42;98035.00;5158149;28;20105;-73
2022/05/24 01:16:49;;;;;;;6.45;3.38;;;;;;;18.23;70.12;98030.59;5163035;28;20100;-73
2022/05/24 01:19:46;;;;;;;3.83;3.20;;;;;;;18.41;69.43;98043.28;5165598;28;20061;-73
2022/05/24 01:22:55;;;;;;;3.95;3.13;;;;;;;18.58;69.02;98042.75;5180202;28;20074;-72
2022/05/24 01:25:54;;;;;;;5.30;3.10;;;;;;;18.40;69.38;98014.78;5160641;28;20054;-74
2022/05/24 01:28:50;;;;;;;6.32;3.60;;;;;;;18.44;68.63;98025.91;5164689;28;20639;-72
2022/05/24 01:38:01;;;;;;;3.60;3.30;;;;;;;18.49;69.20;98024.22;5166908;28;20189;-74
2022/05/24 01:40:53;;;;;;;5.78;3.70;;;;;;;18.43;68.56;98013.53;5162988;28;20046;-72
2022/05/24 01:43:47;;;;;;;4.45;3.28;;;;;;;18.31;68.50;98006.19;5158211;28;20054;-74
2022/05/24 01:46:42;;;;;;;6.90;3.75;;;;;;;18.31;68.45;98005.38;5162158;28;20121;-72
2022/05/24 01:49:35;;;;;;;5.07;3.70;;;;;;;18.39;68.84;98013.13;5168973;28;20053;-72
2022/05/24 01:52:35;;;;;;;4.73;3.37;;;;;;;18.37;68.60;98004.47;5175784;28;20111;-73
2022/05/24 01:55:37;;;;;;;4.75;3.70;;;;;;;18.10;69.46;98003.03;5168511;28;20111;-73
2022/05/24 01:58:32;;;;;;;4.00;3.60;;;;;;;18.30;69.20;98003.69;5177194;28;20046;-73
2022/05/24 02:01:40;;;;;;;4.85;3.53;;;;;;;18.26;69.10;98005.19;5168719;28;20131;-74
2022/05/24 02:04:32;;;;;;;4.75;3.45;;;;;;;18.02;69.46;97999.56;5164213;28;20084;-73
2022/05/24 02:07:24;;;;;;;4.68;3.13;;;;;;;17.85;69.22;97987.72;5165792;28;20135;-72
2022/05/24 02:10:15;;;;;;;4.55;3.90;;;;;;;17.94;69.51;97988.25;5176874;28;20060;-73
2022/05/24 02:13:06;;;;;;;7.72;3.42;;;;;;;17.71;68.73;97984.22;5157317;28;20058;-74
2022/05/24 02:15:59;;;;;;;4.55;3.30;;;;;;;17.67;68.67;97992.91;5158818;28;20196;-72
2022/05/24 02:18:52;;;;;;;5.37;3.77;;;;;;;17.61;69.37;97983.84;5163838;28;20057;-73
2022/05/24 02:21:49;;;;;;;5.22;3.15;;;;;;;17.68;69.20;97998.06;5182802;28;20234;-73
2022/05/24 02:24:39;;;;;;;5.32;3.78;;;;;;;17.68;68.90;98000.75;5162495;28;20537;-73
2022/05/24 02:27:30;;;;;;;7.07;3.88;;;;;;;17.70;68.79;98008.56;5162371;28;20608;-72
2022/05/24 02:30:23;;;;;;;5.10;3.80;;;;;;;17.62;69.38;98004.28;5175413;28;20054;-73
2022/05/24 02:33:13;;;;;;;7.10;3.67;;;;;;;17.47;70.11;98006.41;5185272;28;20602;-72
2022/05/24 02:36:05;;;;;;;4.72;3.25;;;;;;;17.27;69.46;98012.66;5175027;28;20298;-71
2022/05/24 02:38:55;;;;;;;6.45;3.95;;;;;;;17.49;69.52;98020.41;5162387;28;20526;-73
2022/05/24 02:41:45;;;;;;;4.57;4.07;;;;;;;17.51;69.48;98002.25;5182574;22;20108;-73
2022/05/24 02:44:36;;;;;;;6.10;4.70;;;;;;;17.46;69.48;97994.03;5161427;28;20130;-73
2022/05/24 02:47:26;;;;;;;4.70;3.70;;;;;;;17.28;69.44;97992.84;5165838;28;20116;-73
2022/05/24 02:50:20;;;;;;;5.65;3.55;;;;;;;17.20;70.06;97986.91;5159128;28;20512;-73
2022/05/24 02:53:10;;;;;;;3.70;3.40;;;;;;;17.24;69.18;97998.84;5160157;28;20060;-71
2022/05/24 02:56:02;;;;;;;4.70;3.60;;;;;;;17.29;69.82;97989.16;5167550;28;20065;-72
2022/05/24 02:58:53;;;;;;;4.47;3.85;;;;;;;17.20;70.73;97977.03;5178584;28;20057;-72
2022/05/24 03:01:43;;;;;;;5.22;4.32;;;;;;;17.19;70.43;97975.38;5170387;28;20188;-72
2022/05/24 03:04:33;;;;;;;19.70;3.90;;;;;;;17.32;70.45;97972.66;5169677;28;20061;-72
2022/05/24 03:10:33;;;;;;;7.40;4.15;;;;;;;17.35;70.40;97979.44;5170660;28;20057;-71
2022/05/24 03:16:32;;;;;;;4.57;4.13;;;;;;;17.25;70.44;97990.63;5176825;28;20504;-72
2022/05/24 03:19:23;;;;;;;5.80;4.28;;;;;;;17.25;70.57;97997.81;5178207;28;20192;-72
2022/05/24 03:22:13;;;;;;;4.63;3.90;;;;;;;17.24;70.16;98007.72;5172938;28;20046;-72
2022/05/24 03:25:04;;;;;;;5.18;4.10;;;;;;;17.29;70.40;97985.66;5179154;28;20064;-72
2022/05/24 03:27:54;;;;;;;4.93;4.15;;;;;;;17.42;70.62;97995.47;5173808;28;20484;-71
2022/05/24 03:30:44;;;;;;;5.20;4.20;;;;;;;17.47;70.25;97993.00;5172787;28;20077;-72
2022/05/24 03:33:34;;;;;;;5.95;4.47;;;;;;;17.42;70.42;97990.13;5175637;28;20112;-72
2022/05/24 03:36:25;;;;;;;4.55;3.95;;;;;;;17.34;70.59;98010.75;5186006;28;20129;-72
2022/05/24 03:39:16;;;;;;;6.75;4.78;;;;;;;17.43;71.08;98018.59;5183962;28;20072;-72
2022/05/24 03:42:06;;;;;;;5.88;4.35;;;;;;;17.45;70.27;98013.81;5170315;28;20100;-71
2022/05/24 03:44:57;;;;;;;5.88;4.72;;;;;;;17.28;70.36;97981.31;5166649;28;20579;-71
2022/05/24 03:47:47;;;;;;;9.23;5.03;;;;;;;17.55;70.71;98017.72;5152169;28;20047;-71
2022/05/24 03:50:37;;;;;;;9.30;5.72;;;;;;;17.58;70.74;98011.09;5169773;28;20050;-71
2022/05/24 03:53:28;;;;;;;7.53;5.88;;;;;;;17.68;70.79;98011.47;5173204;28;20080;-72
2022/05/24 03:56:18;;;;;;;6.50;5.45;;;;;;;17.73;70.74;98019.69;5176512;28;20053;-71
2022/05/24 03:59:08;;;;;;;7.07;5.90;;;;;;;17.75;70.81;98008.78;5187065;28;20046;-72
2022/05/24 04:01:58;;;;;;;6.32;5.72;;;;;;;17.89;69.69;97993.47;5182848;28;20080;-71
2022/05/24 04:04:49;;;;;;;8.10;6.03;;;;;;;17.86;70.36;98018.03;5182122;28;20108;-71
2022/05/24 04:07:41;;;;;;;8.93;6.00;;;;;;;17.87;69.96;98017.78;5179417;28;20135;-71
2022/05/24 04:10:32;;;;;;;10.23;6.18;;;;;;;17.86;71.00;98024.19;5148908;28;20058;-71
2022/05/24 04:13:23;;;;;;;7.10;5.88;;;;;;;17.88;70.55;98021.28;5178292;28;20057;-74
2022/05/24 04:16:12;;;;;;;10.40;6.35;;;;;;;17.90;70.02;98008.50;5165577;28;20120;-70
2022/05/24 04:19:03;;;;;;;8.20;5.95;;;;;;;17.86;70.41;98007.28;5154587;28;20125;-71
2022/05/24 04:21:53;;;;;;;6.07;5.45;;;;;;;17.68;70.45;98016.00;5168648;28;20078;-70
2022/05/24 04:24:43;;;;;;;7.22;5.72;;;;;;;17.74;71.58;98026.69;5171440;28;20080;-70
2022/05/24 04:27:35;;;;;;;8.52;5.78;;;;;;;17.58;71.20;98001.22;5164151;28;20201;-71
2022/05/24 04:30:25;;;;;;;7.15;6.43;;;;;;;17.52;72.14;98006.59;5164041;28;20061;-71
2022/05/24 04:33:17;;;;;;;7.05;5.80;;;;;;;17.66;71.22;98013.53;5164333;28;20054;-69
2022/05/24 04:36:08;;;;;;;6.93;5.57;;;;;;;17.64;71.85;98029.00;5164253;28;20424;-68
2022/05/24 04:38:59;;;;;;;5.93;5.32;;;;;;;17.92;70.01;98018.00;5164334;28;20050;-69
2022/05/24 04:45:06;;;;;;;6.82;5.72;;;;;;;18.02;70.04;98033.63;5163942;28;20093;-70
2022/05/24 04:47:56;;;;;;;10.38;6.15;;;;;;;17.70;71.57;98040.75;5163935;28;20046;-68
2022/05/24 04:50:46;;;;;;;8.00;6.38;;;;;;;17.54;72.41;98050.06;5147451;28;20061;-68
2022/05/24 04:53:37;;;;;;;8.52;5.90;;;;;;;17.79;72.54;98053.72;5163225;28;20059;-68
2022/05/24 04:56:27;;;;;;;8.00;6.15;;;;;;;18.10;70.63;98065.53;5164254;28;20057;-68
2022/05/24 04:59:17;;;;;;;10.75;6.10;;;;;;;18.01;70.95;98073.03;5160363;28;20050;-69
2022/05/24 05:02:08;;;;;;;11.57;5.20;;;;;;;17.91;70.93;98053.03;5163613;28;20108;-71
2022/05/24 05:04:58;;;;;;;7.25;5.93;;;;;;;18.26;69.55;98061.53;5163723;28;20085;-70
2022/05/24 05:07:48;;;;;;;6.00;5.40;;;;;;;18.26;70.01;98073.09;5163700;28;20054;-71
2022/05/24 05:10:39;;;;;;;10.05;6.38;;;;;;;18.15;70.48;98081.81;5162073;28;20061;-70
2022/05/24 05:13:30;;;;;;;11.82;7.20;;;;;;;18.23;70.28;98073.50;5161399;28;20068;-70
2022/05/24 05:16:20;;;;;;;9.00;5.88;;;;;;;18.37;69.32;98062.69;5162761;28;20065;-71
2022/05/24 05:19:12;;;;;;;10.02;7.28;;;;;;;18.31;69.28;98024.97;5149478;28;20439;-71
2022/05/24 05:22:02;;;;;;;9.98;5.75;;;;;;;18.70;69.47;98057.09;5159059;28;20054;-73
2022/05/24 05:24:53;;;;;;;6.57;4.90;;;;;;;18.75;69.05;98066.16;5149679;28;20104;-72
2022/05/24 05:27:43;;;;;;;6.65;5.10;;;;;;;18.63;69.34;98062.50;5148736;28;20142;-71
2022/05/24 05:33:43;;;;;;;6.18;4.72;;;;;;;18.63;69.64;98081.31;5163092;28;20104;-70
2022/05/24 05:36:34;;;;;;;6.35;5.00;;;;;;;18.67;70.32;98085.19;5162794;28;20128;-70
2022/05/24 05:39:24;;;;;;;8.55;5.15;;;;;;;18.80;69.81;98095.03;5162312;28;20143;-69
2022/05/24 05:42:14;;;;;;;5.60;4.70;;;;;;;18.95;69.10;98097.44;5144478;28;20127;-73
2022/05/24 05:45:06;;;;;;;9.63;5.18;;;;;;;18.92;68.75;98087.94;5148274;28;20061;-70
2022/05/24 05:47:56;;;;;;;5.45;4.70;;;;;;;19.29;68.28;98096.06;5163434;28;20108;-70
2022/05/24 05:50:47;;;;;;;8.50;4.90;;;;;;;19.30;67.04;98104.94;5148776;28;20140;-71
2022/05/24 05:53:38;;;;;;;7.10;4.82;;;;;;;19.30;68.29;98104.94;5163276;28;20113;-69
2022/05/24 05:56:32;;;;;;;5.95;4.03;;;;;;;19.31;67.79;98112.81;5163087;28;20053;-70
2022/05/24 05:59:22;;;;;;;8.55;4.40;;;;;;;19.29;67.62;98112.19;5163155;28;20053;-70
2022/05/24 06:02:12;;;;;;;7.15;3.50;;;;;;;19.18;67.08;98115.63;5163352;28;20130;-71
2022/05/24 06:05:04;;;;;;;6.88;3.50;;;;;;;19.17;67.21;98109.44;5163131;28;20101;-70
2022/05/24 06:07:55;;;;;;;3.75;3.33;;;;;;;19.34;66.85;98107.00;5163402;28;20452;-71
2022/05/24 06:10:45;;;;;;;6.32;3.47;;;;;;;19.51;66.50;98098.34;5162813;28;20046;-72
2022/05/24 06:13:35;;;;;;;5.57;3.90;;;;;;;19.84;65.34;98101.53;5163314;28;20066;-71
2022/05/24 06:16:25;;;;;;;5.00;3.88;;;;;;;20.08;66.91;98098.94;5162988;28;20054;-72
2022/05/24 06:19:16;;;;;;;5.47;2.97;;;;;;;20.02;65.88;98095.28;5163580;28;20409;-71
2022/05/24 06:22:06;;;;;;;3.90;2.60;;;;;;;19.69;65.25;98104.56;5164608;28;20098;-71
2022/05/24 06:24:57;;;;;;;6.45;2.30;;;;;;;19.73;64.33;98104.13;5167226;28;20518;-69
2022/05/24 06:27:52;;;;;;;3.22;2.58;;;;;;;19.63;64.32;98100.09;5161900;28;20148;-70
2022/05/24 06:30:43;;;;;;;4.40;2.38;;;;;;;19.85;64.22;98102.34;5162587;28;20090;-71
2022/05/24 06:33:34;;;;;;;5.82;2.47;;;;;;;19.97;63.15;98097.00;5163117;28;20054;-71
2022/05/24 06:36:24;;;;;;;4.32;2.80;;;;;;;20.10;63.79;98113.84;5162509;28;20046;-70
2022/05/24 06:39:15;;;;;;;4.75;2.85;;;;;;;20.14;63.69;98123.09;5162695;28;20046;-70
2022/05/24 06:42:05;;;;;;;7.25;3.22;;;;;;;20.02;63.76;98124.88;5162244;28;20077;-69
2022/05/24 06:44:56;;;;;;;7.20;3.17;;;;;;;19.92;65.45;98136.19;5162373;28;20065;-69
2022/05/24 06:47:46;;;;;;;8.57;3.33;;;;;;;19.75;64.75;98134.31;5162191;28;20233;-69
2022/05/24 06:50:39;;;;;;;9.52;3.33;;;;;;;19.51;65.83;98147.56;5147152;28;20054;-69
2022/05/24 06:53:30;;;;;;;4.35;2.85;;;;;;;19.60;66.27;98157.00;5162074;28;20081;-70
2022/05/24 06:56:20;;;;;;;7.55;3.05;;;;;;;19.43;67.09;98169.34;5162390;28;20057;-70
2022/05/24 07:02:27;;;;;;;10.73;2.17;;;;;;;17.33;67.52;98236.06;5161558;28;20152;-69
2022/05/24 07:05:19;;;;;;;6.07;1.10;;;;;;;15.10;73.28;98263.03;5147224;28;20089;-69
2022/05/24 07:08:10;;;;;;;4.60;0.90;;;;;;;15.17;71.44;98274.63;5162109;28;20057;-69
2022/05/24 07:11:01;;;;;;;1.98;0.60;;;;;;;14.92;71.32;98269.63;5161864;28;20081;-69
2022/05/24 07:13:51;;;;;;;2.70;0.70;;;;;;;14.92;70.24;98285.66;5161935;28;20140;-68
2022/05/24 07:16:41;;;;;;;8.15;0.65;;;;;;;14.83;72.01;98289.44;5162138;28;20073;-69
2022/05/24 07:19:32;;;;;;;4.72;0.68;;;;;;;15.22;70.97;98280.19;5161784;28;20496;-70
2022/05/24 07:22:23;;;;;;;3.38;0.80;;;;;;;15.15;69.91;98276.66;5161935;28;20065;-70
2022/05/24 07:25:12;;;;;;;12.52;1.25;;;;;;;15.56;68.02;98276.78;5147046;28;20192;-70
2022/05/24 07:28:04;;;;;;;6.18;0.88;;;;;;;14.82;70.68;98285.13;5161931;28;20061;-69
2022/05/24 07:30:54;;;;;;;1.35;0.63;;;;;;;15.80;67.89;98272.09;5161633;28;20054;-70
2022/05/24 07:33:44;;;;;;;7.32;0.90;;;;;;;16.20;68.88;98270.50;5146267;28;20493;-70
2022/05/24 07:36:34;;;;;;;5.25;0.75;;;;;;;16.11;67.66;98282.38;5162041;28;20137;-70
2022/05/24 07:39:25;;;;;;;3.30;0.90;;;;;;;15.62;70.28;98285.88;5161600;28;20108;-70
2022/05/24 07:48:34;;;;;;;7.00;0.90;;;;;;;15.62;68.93;98301.94;5155250;28;20195;-70
2022/05/24 07:51:25;;;;;;;4.25;0.70;;;;;;;16.25;69.16;98307.34;5161833;28;20054;-70
2022/05/24 07:54:17;;;;;;;3.17;0.90;;;;;;;16.15;68.47;98311.19;5161395;28;20441;-70
2022/05/24 07:57:09;;;;;;;3.33;0.80;;;;;;;16.33;68.80;98315.22;5162008;28;20481;-70
2022/05/24 07:59:59;;;;;;;3.50;0.98;;;;;;;16.12;68.33;98327.63;5159063;28;20458;-70
2022/05/24 08:02:50;;;;;;;5.55;0.93;;;;;;;16.63;68.73;98332.66;5156772;28;20109;-70
2022/05/24 08:05:41;;;;;;;3.08;0.68;;;;;;;16.18;69.57;98342.88;5164921;28;20623;-69
2022/05/24 08:08:32;;;;;;;2.40;0.80;;;;;;;16.86;66.52;98335.06;5164274;28;20053;-71
2022/05/24 08:11:22;;;;;;;2.42;0.60;;;;;;;15.87;68.38;98337.13;5164933;28;20073;-71
2022/05/24 08:14:12;;;;;;;4.55;0.60;;;;;;;16.05;67.20;98341.97;5164807;28;20140;-69
2022/05/24 08:17:03;;;;;;;5.55;0.82;;;;;;;15.28;69.75;98343.53;5164966;28;20093;-70
2022/05/24 08:20:00;;;;;;;3.08;0.65;;;;;;;15.68;68.17;98342.09;5165545;28;20136;-70
2022/05/24 08:22:51;;;;;;;0.73;0.40;;;;;;;16.06;67.10;98340.94;5165560;28;20200;-70
2022/05/24 08:25:41;;;;;;;1.15;0.60;;;;;;;16.77;65.58;98354.19;5164291;28;20511;-71
2022/05/24 08:28:31;;;;;;;1.65;0.70;;;;;;;16.11;66.05;98354.56;5164752;28;20409;-69
2022/05/24 08:31:29;;;;;;;1.05;0.68;;;;;;;16.12;66.49;98357.03;5164340;28;20065;-70
2022/05/24 08:34:19;;;;;;;3.45;0.70;;;;;;;15.90;68.03;98358.94;5164807;28;20185;-71
2022/05/24 08:37:09;;;;;;;3.83;0.63;;;;;;;16.35;66.96;98356.78;5163653;28;20673;-72
2022/05/24 08:40:00;;;;;;;1.25;0.65;;;;;;;16.81;64.16;98356.25;5164876;28;20073;-71
2022/05/24 08:43:02;;;;;;;1.35;0.70;;;;;;;17.33;64.38;98373.53;5202266;23;20052;-81
2022/05/24 08:49:13;;;;;;;1.05;0.50;;;;;;;16.13;64.23;98373.94;5207213;28;20435;-80
2022/05/24 08:52:06;;;;;;;1.45;0.52;;;;;;;17.02;63.46;98371.38;5206192;28;20064;-82
2022/05/24 08:54:58;;;;;;;0.50;0.50;;;;;;;17.00;61.92;98373.44;5191958;28;20081;-82
2022/05/24 08:57:52;;;;;;;4.47;0.93;;;;;;;17.10;62.44;98376.56;5186579;28;20057;-82
2022/05/24 09:00:42;;;;;;;4.20;1.20;;;;;;;18.30;61.99;98361.44;5186543;28;20259;-81
2022/05/24 09:03:33;;;;;;;2.63;0.50;;;;;;;18.62;59.55;98361.59;5189641;28;20050;-82
2022/05/24 09:06:47;;;;;;;0.68;0.45;;;;;;;19.21;56.55;98365.94;5193382;28;20045;-81
2022/05/24 09:10:12;;;;;;;0.45;0.40;;;;;;;19.94;55.29;98373.56;5206317;28;20065;-80
2022/05/24 09:13:31;;;;;;;0.77;0.30;;;;;;;19.27;54.54;98371.47;5193822;28;20569;-83
2022/05/24 09:16:32;;;;;;;0.45;0.30;;;;;;;18.29;53.86;98362.47;5206493;28;20046;-83
2022/05/24 09:19:27;;;;;;;3.67;0.40;;;;;;;18.23;57.33;98375.91;5190784;28;20060;-82
2022/05/24 09:22:21;;;;;;;3.10;0.40;;;;;;;18.60;56.18;98374.38;5187978;28;20140;-83
2022/05/24 09:25:14;;;;;;;1.35;0.40;;;;;;;18.32;55.81;98366.63;5187921;28;20522;-82
2022/05/24 09:28:05;;;;;;;1.30;0.70;;;;;;;18.51;54.48;98381.84;5185417;28;20083;-82
2022/05/24 09:30:58;;;;;;;1.92;0.60;;;;;;;18.46;56.18;98395.06;5184697;28;20053;-81
2022/05/24 09:34:07;;;;;;;2.53;0.50;;;;;;;18.40;55.27;98406.63;5185415;28;20423;-80
2022/05/24 09:36:57;;;;;;;1.30;0.35;;;;;;;18.94;53.46;98404.69;5186433;28;20052;-81
2022/05/24 09:40:25;;;;;;;3.85;0.43;;;;;;;19.12;57.06;98402.16;5186263;28;20420;-80
2022/05/24 09:43:26;;;;;;;0.80;0.40;;;;;;;18.88;52.62;98403.69;5166546;28;20141;-79
2022/05/24 09:46:21;;;;;;;1.27;0.50;;;;;;;19.67;49.90;98412.47;5185565;28;20062;-81
2022/05/24 09:49:18;;;;;;;2.15;0.52;;;;;;;21.28;49.32;98414.25;5185694;28;20053;-81
2022/05/24 09:52:12;;;;;;;2.90;0.32;;;;;;;20.53;49.31;98422.56;5185155;28;20431;-81
2022/05/24 09:55:02;;;;;;;2.30;0.50;;;;;;;20.08;49.98;98403.06;5188181;28;20065;-82
2022/05/24 09:57:52;;;;;;;5.15;0.50;;;;;;;19.14;52.04;98412.66;5169628;28;20143;-80
2022/05/24 10:00:57;;;;;;;1.48;0.50;;;;;;;18.54;53.01;98432.44;5183823;28;20416;-81
2022/05/24 10:03:49;;;;;;;0.82;0.30;;;;;;;19.36;51.92;98421.25;5184669;28;20084;-79
2022/05/24 10:06:41;;;;;;;1.77;0.45;;;;;;;19.30;50.07;98411.38;5183851;28;20054;-80
2022/05/24 10:09:34;;;;;;;0.75;0.38;;;;;;;20.53;48.30;98417.19;5170716;28;20096;-84
2022/05/24 10:12:30;;;;;;;2.78;0.55;;;;;;;21.50;47.72;98417.31;5184184;28;20058;-80
2022/05/24 10:15:33;;;;;;;1.98;0.40;;;;;;;22.28;46.26;98421.78;5183826;28;20129;-80
2022/05/24 10:18:34;;;;;;;2.25;0.40;;;;;;;22.51;49.18;98426.34;5184415;28;20064;-81
2022/05/24 10:21:49;;;;;;;0.63;0.25;;;;;;;23.41;45.61;98411.56;5184426;28;20141;-81
2022/05/24 10:24:51;;;;;;;2.72;0.75;;;;;;;23.56;43.25;98426.44;5183055;28;20491;-80
2022/05/24 10:28:10;;;;;;;0.75;0.50;;;;;;;23.79;42.60;98429.06;5188678;28;20176;-81
2022/05/24 10:31:32;;;;;;;1.25;0.50;;;;;;;21.67;44.04;98416.69;5203625;28;20108;-80
2022/05/24 10:38:18;;;;;;;2.85;0.45;;;;;;;21.69;46.48;98403.78;5203855;28;20064;-80
2022/05/24 10:41:19;;;;;;;3.17;0.60;;;;;;;21.84;43.85;98417.66;5203217;28;20065;-82
2022/05/24 10:44:17;;;;;;;1.13;0.40;;;;;;;22.96;45.32;98397.94;5190413;28;20057;-81
2022/05/24 10:47:24;;;;;;;4.53;0.43;;;;;;;22.38;44.41;98396.06;5204809;28;20095;-80
2022/05/24 10:50:39;;;;;;;0.77;0.40;;;;;;;22.37;43.82;98411.44;5205702;28;20056;-82
2022/05/24 10:53:42;;;;;;;2.47;0.45;;;;;;;21.79;44.42;98383.28;5205250;28;20061;-83
2022/05/24 10:56:46;;;;;;;1.40;0.30;;;;;;;22.17;44.01;98390.19;5193723;28;20054;-82
2022/05/24 10:59:44;;;;;;;2.83;0.60;;;;;;;22.73;46.06;98407.69;5169454;28;20060;-81
2022/05/24 11:02:54;;;;;;;1.17;0.38;;;;;;;21.39;44.65;98407.31;5183184;28;20196;-82
2022/05/24 11:05:48;;;;;;;2.83;0.40;;;;;;;22.20;44.10;98397.00;5166315;28;20097;-80
2022/05/24 11:08:43;;;;;;;2.15;0.57;;;;;;;21.37;44.39;98387.84;5163635;28;20053;-83
2022/05/24 11:11:41;;;;;;;;;;;;;;;20.61;46.46;98407.97;5162689;28;20072;-82
2022/05/24 11:14:31;;;;;;;4.25;0.65;;;;;;;20.03;47.49;98422.53;5162708;28;19922;-81
2022/05/24 11:17:22;;;;;;;3.70;0.50;;;;;;;19.33;48.02;98401.00;5162708;28;20430;-82
2022/05/24 11:20:20;;;;;;;1.25;0.50;;;;;;;18.95;47.89;98411.72;5189796;28;20164;-80
2022/05/24 11:23:16;;;;;;;1.77;0.45;;;;;;;20.35;47.76;98409.03;5203796;28;20111;-82
2022/05/24 11:26:12;;;;;;;0.77;0.60;;;;;;;22.13;45.10;98402.47;5203639;28;20085;-82
2022/05/24 11:29:19;;;;;;;1.20;0.43;;;;;;;21.23;46.73;98411.44;5204536;28;20056;-82
2022/05/24 11:32:11;;;;;;;1.33;0.50;;;;;;;21.29;45.18;98417.75;5203486;28;20557;-81
2022/05/24 11:35:07;;;;;;;3.55;0.47;;;;;;;21.76;47.11;98399.94;5189706;28;20063;-82
2022/05/24 11:38:09;;;;;;;1.52;0.50;;;;;;;21.71;42.14;98401.69;5208762;28;20555;-81
2022/05/24 11:41:27;;;;;;;6.57;0.60;;;;;;;22.00;42.78;98408.91;5207980;28;20099;-81
2022/05/24 11:44:35;;;;;;;1.50;0.50;;;;;;;22.31;43.35;98409.69;5208077;28;20199;-82
2022/05/24 11:47:35;;;;;;;1.52;0.40;;;;;;;21.15;45.18;98398.25;5207757;28;20526;-82
2022/05/24 11:50:39;;;;;;;3.08;0.70;;;;;;;20.76;42.23;98378.81;5207579;28;20060;-80
2022/05/24 11:53:36;;;;;;;0.40;0.40;;;;;;;20.81;44.10;98402.38;5207858;28;20569;-80
2022/05/24 11:56:29;;;;;;;2.63;0.43;;;;;;;21.53;42.10;98389.09;5207360;28;20045;-82
2022/05/24 11:59:55;;;;;;;2.20;0.60;;;;;;;21.70;43.39;98403.56;5208236;28;20438;-81
2022/05/24 12:09:24;;;;;;;1.55;0.43;;;;;;;22.53;44.11;98391.00;5188900;28;20416;-81
2022/05/24 12:12:21;;;;;;;2.17;0.40;;;;;;;22.10;39.86;98384.03;5187125;28;20056;-82
2022/05/24 12:15:15;;;;;;;3.10;0.60;;;;;;;22.44;44.08;98387.03;5186411;28;20575;-83
2022/05/24 12:18:05;;;;;;;1.40;0.43;;;;;;;22.13;40.87;98393.56;5186757;28;20490;-83
2022/05/24 12:20:57;;;;;;;3.65;0.60;;;;;;;20.96;43.56;98388.53;5186360;28;20128;-83
2022/05/24 12:23:47;;;;;;;1.33;0.50;;;;;;;21.19;44.16;98377.91;5186288;28;20058;-83
2022/05/24 12:27:19;;;;;;;3.67;0.50;;;;;;;22.46;42.70;98393.84;5186200;28;20052;-83
2022/05/24 12:30:37;;;;;;;3.92;0.25;;;;;;;22.37;41.76;98367.41;5186734;28;20057;-82
2022/05/24 12:33:36;;;;;;;7.90;1.38;;;;;;;20.96;43.00;98405.53;5186778;28;20073;-83
2022/05/24 12:36:45;;;;;;;2.00;0.40;;;;;;;21.13;43.68;98388.75;5185865;28;20630;-81
2022/05/24 12:40:29;;;;;;;2.65;0.50;;;;;;;21.26;42.51;98385.91;5186559;28;20054;-82
2022/05/24 12:43:19;;;;;;;3.20;0.70;;;;;;;20.39;45.21;98377.91;5187252;28;20109;-82
2022/05/24 12:46:10;;;;;;;2.83;0.60;;;;;;;21.15;42.65;98392.84;5205065;28;20536;-83
2022/05/24 12:49:07;;;;;;;2.70;0.60;;;;;;;20.73;42.61;98394.59;5192693;28;20053;-83
2022/05/24 12:52:05;;;;;;;1.75;0.40;;;;;;;21.22;43.70;98398.16;5208021;28;20142;-81
2022/05/24 12:54:58;;;;;;;1.65;0.30;;;;;;;21.77;42.61;98406.97;5209397;28;20192;-81
2022/05/24 12:57:49;;;;;;;8.83;0.60;;;;;;;22.12;43.07;98390.03;5208513;28;20068;-81
2022/05/24 13:00:39;;;;;;;3.20;0.52;;;;;;;21.77;41.39;98393.47;5192679;28;20157;-80
2022/05/24 13:03:31;;;;;;;3.08;0.60;;;;;;;21.69;43.68;98398.38;5193476;28;20046;-81
2022/05/24 13:06:40;;;;;;;3.33;0.60;;;;;;;21.25;42.73;98409.31;5169482;28;20102;-82
2022/05/24 13:09:32;;;;;;;2.00;0.45;;;;;;;21.56;44.05;98410.19;5170224;28;20053;-81
2022/05/24 13:12:24;;;;;;;0.85;0.57;;;;;;;21.80;41.23;98394.91;5182268;28;20057;-82
2022/05/24 13:15:18;;;;;;;1.35;0.50;;;;;;;22.05;42.15;98395.56;5168784;28;20058;-82
2022/05/24 13:18:12;;;;;;;2.67;0.50;;;;;;;21.59;42.47;98407.06;5180340;28;20052;-82
2022/05/24 13:21:08;;;;;;;3.08;0.55;;;;;;;22.10;43.03;98394.03;5194666;28;20089;-81
2022/05/24 13:24:09;;;;;;;3.15;0.80;;;;;;;21.66;43.44;98404.25;5193981;28;20140;-80
2022/05/24 13:27:05;;;;;;;4.30;0.60;;;;;;;21.69;42.12;98415.41;5192569;28;20061;-81
2022/05/24 13:36:26;;;;;;;1.60;0.50;;;;;;;22.18;41.22;98409.91;5210078;28;20148;-80
2022/05/24 13:39:21;;;;;;;1.45;0.60;;;;;;;22.27;42.37;98393.13;5207763;28;20061;-81
2022/05/24 13:42:25;;;;;;;1.27;0.60;;;;;;;22.95;43.19;98407.09;5207087;28;20491;-80
2022/05/24 13:45:21;;;;;;;4.03;0.50;;;;;;;21.80;40.96;98411.91;5213516;28;20068;-80
2022/05/24 13:48:26;;;;;;;1.83;0.82;;;;;;;21.57;41.63;98409.97;5194055;28;20085;-80
2022/05/24 13:51:24;;;;;;;1.95;0.70;;;;;;;21.63;42.23;98393.91;5189152;28;20046;-81
2022/05/24 13:54:32;;;;;;;1.90;0.50;;;;;;;21.70;40.93;98417.03;5190391;28;20537;-82
2022/05/24 13:57:27;;;;;;;1.10;0.60;;;;;;;21.32;40.87;98401.13;5190763;28;20111;-81
2022/05/24 14:00:23;;;;;;;3.63;0.55;;;;;;;21.42;42.84;98414.13;5191552;28;20120;-81
2022/05/24 14:03:21;;;;;;;1.15;0.60;;;;;;;21.08;43.67;98416.38;5191770;28;20122;-82
2022/05/24 14:06:17;;;;;;;3.20;0.52;;;;;;;21.40;43.94;98408.97;5192482;28;20061;-82
2022/05/24 14:09:09;;;;;;;2.78;0.60;;;;;;;22.29;42.99;98417.22;5177940;28;20133;-81
2022/05/24 14:12:02;;;;;;;1.80;0.55;;;;;;;22.14;42.21;98403.28;5190666;28;20064;-81
2022/05/24 14:14:53;;;;;;;2.55;0.50;;;;;;;22.30;41.39;98393.72;5189237;28;20065;-81
2022/05/24 14:17:43;;;;;;;1.30;0.63;;;;;;;21.20;42.40;98405.66;5189246;28;20065;-81
2022/05/24 14:20:33;;;;;;;6.88;0.77;;;;;;;21.06;43.00;98411.22;5190106;28;20689;-82
2022/05/24 14:23:24;;;;;;;1.75;0.63;;;;;;;21.09;42.08;98378.44;5189564;28;20115;-81
2022/05/24 14:26:15;;;;;;;3.53;0.50;;;;;;;21.81;42.58;98408.16;5189482;28;20045;-81
2022/05/24 14:29:06;;;;;;;3.17;0.68;;;;;;;21.52;40.76;98406.28;5191358;28;20064;-81
2022/05/24 14:31:57;;;;;;;1.08;0.40;;;;;;;21.17;41.51;98398.84;5206270;28;20057;-81